Time;durP1;ratioP1;P1;durP2;ratioP2;P2;SDS_P1;SDS_P2;PMS_P1;PMS_P2;Temp;Humidity;BMP_temperature;BMP_pressure;BME280_temperature;BME280_humidity;BME280_pressure;Samples;Min_cycle;Max_cycle;Signal;HPM_P1;HPM_P2
2022/11/04 00:01:32;;;;;;;22.33;9.93;;;;;;;;;;4989710;28;20432;-59
2022/11/04 00:03:57;;;;;;;20.65;10.07;;;;;;;;;;4989436;28;20416;-59
2022/11/04 00:06:23;;;;;;;24.38;10.40;;;;;;;;;;4991347;28;20454;-60
2022/11/04 00:08:49;;;;;;;17.98;9.25;;;;;;;;;;4989756;28;20183;-59
2022/11/04 00:13:59;;;;;;;22.48;10.23;;;;;;;;;;4990234;28;20471;-59
2022/11/04 00:19:08;;;;;;;15.60;8.20;;;;;;;;;;4989968;28;20359;-60
2022/11/04 00:29:45;;;;;;;20.30;9.43;;;;;;;;;;4990216;28;20462;-58
2022/11/04 00:34:54;;;;;;;18.02;8.93;;;;;;;;;;4990729;28;20578;-59
2022/11/04 00:37:20;;;;;;;20.17;8.63;;;;;;;;;;4989769;28;20546;-60
2022/11/04 00:39:45;;;;;;;16.15;8.30;;;;;;;;;;4989929;28;20051;-59
2022/11/04 00:42:11;;;;;;;17.27;7.75;;;;;;;;;;4990569;28;20554;-59
2022/11/04 00:44:37;;;;;;;14.48;7.30;;;;;;;;;;4990501;28;20459;-58
2022/11/04 00:47:02;;;;;;;15.63;7.78;;;;;;;;;;4990341;28;20352;-59
2022/11/04 00:49:28;;;;;;;21.38;7.65;;;;;;;;;;4989043;28;20517;-60
2022/11/04 00:51:53;;;;;;;20.80;8.00;;;;;;;;;;4988814;28;20424;-58
2022/11/04 00:54:19;;;;;;;19.40;8.15;;;;;;;;;;4988796;28;20332;-59
2022/11/04 00:56:44;;;;;;;15.32;7.13;;;;;;;;;;4988992;28;20107;-59
2022/11/04 00:59:10;;;;;;;14.65;7.72;;;;;;;;;;4988804;28;20360;-58
2022/11/04 01:01:35;;;;;;;15.82;7.90;;;;;;;;;;4980313;28;20340;-58
2022/11/04 01:04:00;;;;;;;16.63;7.97;;;;;;;;;;4968487;28;20360;-60
2022/11/04 01:06:26;;;;;;;18.95;8.05;;;;;;;;;;4970380;28;20445;-58
2022/11/04 01:09:00;;;;;;;15.75;7.40;;;;;;;;;;4967510;28;20340;-59
2022/11/04 01:11:27;;;;;;;17.00;7.75;;;;;;;;;;4969980;28;20499;-59
2022/11/04 01:13:52;;;;;;;17.17;7.60;;;;;;;;;;4968973;28;20061;-59
2022/11/04 01:16:18;;;;;;;15.73;7.63;;;;;;;;;;4969300;28;20583;-58
2022/11/04 01:18:44;;;;;;;17.63;9.02;;;;;;;;;;4969100;28;20029;-58
2022/11/04 01:21:12;;;;;;;13.93;7.57;;;;;;;;;;4970629;28;20429;-59
2022/11/04 01:23:37;;;;;;;16.85;7.78;;;;;;;;;;4968976;28;20041;-59
2022/11/04 01:26:07;;;;;;;16.58;7.43;;;;;;;;;;4968120;28;20048;-59
2022/11/04 01:28:33;;;;;;;35.42;7.75;;;;;;;;;;4970731;28;20512;-58
2022/11/04 01:30:58;;;;;;;20.30;7.45;;;;;;;;;;4968936;28;20413;-60
2022/11/04 01:33:24;;;;;;;17.92;7.63;;;;;;;;;;4968469;28;20354;-58
2022/11/04 01:35:49;;;;;;;16.42;7.60;;;;;;;;;;4970188;28;20046;-59
2022/11/04 01:38:16;;;;;;;13.20;6.97;;;;;;;;;;4968607;28;20423;-60
2022/11/04 01:40:41;;;;;;;19.70;7.80;;;;;;;;;;4968465;28;20425;-60
2022/11/04 01:43:17;;;;;;;16.95;6.88;;;;;;;;;;4968537;28;20456;-59
2022/11/04 01:45:54;;;;;;;22.77;7.18;;;;;;;;;;4969549;28;20490;-58
2022/11/04 01:48:28;;;;;;;17.85;8.40;;;;;;;;;;4969021;28;20433;-59
2022/11/04 01:50:54;;;;;;;13.93;7.18;;;;;;;;;;4967479;28;20405;-61
2022/11/04 01:53:40;;;;;;;14.45;7.82;;;;;;;;;;4967133;28;20445;-58
2022/11/04 01:56:10;;;;;;;17.60;7.93;;;;;;;;;;4967355;28;20360;-59
2022/11/04 01:58:39;;;;;;;16.42;8.65;;;;;;;;;;4967119;28;20030;-59
2022/11/04 02:01:04;;;;;;;13.67;7.33;;;;;;;;;;4972416;28;20540;-59
2022/11/04 02:03:35;;;;;;;12.57;6.55;;;;;;;;;;4990338;28;20800;-58
2022/11/04 02:06:01;;;;;;;14.45;6.60;;;;;;;;;;4990048;28;20051;-61
2022/11/04 02:08:27;;;;;;;18.48;7.97;;;;;;;;;;5007814;28;20024;-61
2022/11/04 02:11:01;;;;;;;12.82;6.63;;;;;;;;;;4989948;28;20458;-59
2022/11/04 02:13:28;;;;;;;16.20;6.97;;;;;;;;;;5008045;28;20417;-59
2022/11/04 02:16:55;;;;;;;17.90;6.97;;;;;;;;;;4990303;28;20461;-61
2022/11/04 02:19:39;;;;;;;14.70;7.53;;;;;;;;;;4963441;28;20451;-58
2022/11/04 02:22:27;;;;;;;15.85;6.60;;;;;;;;;;4989914;28;20025;-58
2022/11/04 02:25:10;;;;;;;13.43;6.90;;;;;;;;;;5007871;28;20427;-59
2022/11/04 02:27:41;;;;;;;17.20;6.50;;;;;;;;;;5007673;28;20095;-59
2022/11/04 02:30:16;;;;;;;11.10;5.88;;;;;;;;;;5007922;28;20420;-59
2022/11/04 02:32:46;;;;;;;12.65;6.05;;;;;;;;;;4990281;28;20446;-58
2022/11/04 02:35:38;;;;;;;17.00;6.63;;;;;;;;;;4989864;28;20093;-59
2022/11/04 02:38:11;;;;;;;11.43;6.50;;;;;;;;;;5008010;28;20413;-59
2022/11/04 02:40:49;;;;;;;22.10;7.72;;;;;;;;;;4993145;28;20423;-59
2022/11/04 02:43:32;;;;;;;14.43;7.20;;;;;;;;;;5011105;28;20029;-59
2022/11/04 02:46:04;;;;;;;14.95;6.07;;;;;;;;;;4993115;28;20305;-59
2022/11/04 02:48:46;;;;;;;12.90;6.28;;;;;;;;;;4993859;28;20431;-61
2022/11/04 02:51:18;;;;;;;13.13;5.60;;;;;;;;;;5011679;28;20492;-59
2022/11/04 02:53:47;;;;;;;14.48;6.70;;;;;;;;;;4992868;28;20447;-59
2022/11/04 02:56:13;;;;;;;14.88;6.03;;;;;;;;;;5011751;28;20398;-59
2022/11/04 02:58:49;;;;;;;14.38;6.30;;;;;;;;;;4992836;28;20466;-59
2022/11/04 03:01:16;;;;;;;15.73;6.00;;;;;;;;;;4986054;28;20441;-60
2022/11/04 03:03:47;;;;;;;10.45;5.05;;;;;;;;;;4970738;28;20298;-59
2022/11/04 03:06:14;;;;;;;13.57;6.82;;;;;;;;;;4969860;28;20033;-60
2022/11/04 03:08:44;;;;;;;13.00;6.65;;;;;;;;;;4969725;28;20401;-60
2022/11/04 03:11:12;;;;;;;19.00;6.50;;;;;;;;;;4969631;28;20456;-59
2022/11/04 03:13:46;;;;;;;11.38;5.57;;;;;;;;;;4969780;28;20442;-59
2022/11/04 03:16:27;;;;;;;12.55;5.80;;;;;;;;;;4970663;28;20456;-60
2022/11/04 03:19:13;;;;;;;13.25;6.28;;;;;;;;;;4969791;28;20467;-58
2022/11/04 03:21:44;;;;;;;13.68;5.72;;;;;;;;;;4969234;28;20064;-58
2022/11/04 03:24:10;;;;;;;12.10;5.95;;;;;;;;;;4970713;28;20388;-59
2022/11/04 03:26:59;;;;;;;15.30;7.10;;;;;;;;;;4971045;28;20404;-59
2022/11/04 03:29:29;;;;;;;12.93;6.35;;;;;;;;;;4957164;28;20349;-59
2022/11/04 03:32:14;;;;;;;10.35;5.20;;;;;;;;;;4970999;28;20598;-59
2022/11/04 03:34:40;;;;;;;9.63;5.68;;;;;;;;;;4969307;28;20056;-58
2022/11/04 03:37:05;;;;;;;16.23;6.95;;;;;;;;;;4968843;28;20445;-60
2022/11/04 03:39:31;;;;;;;15.88;5.65;;;;;;;;;;4970834;28;20325;-59
2022/11/04 03:41:59;;;;;;;11.00;5.15;;;;;;;;;;4970707;28;20048;-59
2022/11/04 03:44:24;;;;;;;13.10;5.10;;;;;;;;;;4969309;28;20384;-59
2022/11/04 03:46:53;;;;;;;11.27;5.63;;;;;;;;;;4970991;28;20092;-59
2022/11/04 03:49:22;;;;;;;12.20;5.90;;;;;;;;;;4968938;28;20298;-59
2022/11/04 03:51:48;;;;;;;12.98;5.65;;;;;;;;;;4952494;28;20510;-59
2022/11/04 03:54:14;;;;;;;15.73;5.00;;;;;;;;;;4970764;28;20428;-59
2022/11/04 03:56:48;;;;;;;9.38;5.47;;;;;;;;;;4970531;28;20652;-59
2022/11/04 03:59:36;;;;;;;10.77;5.03;;;;;;;;;;4970312;28;20038;-58
2022/11/04 04:02:21;;;;;;;11.13;6.22;;;;;;;;;;4989783;28;20127;-61
2022/11/04 04:05:01;;;;;;;10.18;5.80;;;;;;;;;;5009270;28;20055;-59
2022/11/04 04:07:36;;;;;;;9.13;4.40;;;;;;;;;;5011146;28;20424;-58
2022/11/04 04:13:33;;;;;;;12.48;5.45;;;;;;;;;;4994730;28;20528;-60
2022/11/04 04:16:09;;;;;;;9.98;5.10;;;;;;;;;;4977891;28;20537;-60
2022/11/04 04:18:39;;;;;;;10.07;4.95;;;;;;;;;;4991496;28;20369;-58
2022/11/04 04:21:07;;;;;;;11.85;4.70;;;;;;;;;;4991198;28;20020;-59
2022/11/04 04:29:05;;;;;;;10.65;4.90;;;;;;;;;;5009075;28;20417;-59
2022/11/04 04:31:51;;;;;;;10.68;5.00;;;;;;;;;;5010793;28;20024;-61
2022/11/04 04:34:28;;;;;;;11.57;6.30;;;;;;;;;;4993519;28;20386;-59
2022/11/04 04:37:06;;;;;;;11.77;5.15;;;;;;;;;;4991812;28;20362;-60
2022/11/04 04:45:10;;;;;;;9.45;5.05;;;;;;;;;;4977576;28;20044;-58
2022/11/04 04:47:39;;;;;;;10.48;5.55;;;;;;;;;;4991041;28;20125;-59
2022/11/04 04:50:05;;;;;;;9.95;4.78;;;;;;;;;;4991030;28;20025;-59
2022/11/04 04:52:34;;;;;;;10.48;4.90;;;;;;;;;;5008518;28;20423;-59
2022/11/04 04:54:59;;;;;;;9.10;4.63;;;;;;;;;;4990697;28;20523;-58
2022/11/04 04:57:24;;;;;;;15.00;5.15;;;;;;;;;;5008973;28;20344;-60
2022/11/04 04:59:50;;;;;;;12.50;5.40;;;;;;;;;;5008616;28;20546;-59
2022/11/04 05:02:15;;;;;;;10.05;5.10;;;;;;;;;;4984201;28;20432;-58
2022/11/04 05:04:40;;;;;;;9.93;4.68;;;;;;;;;;4969120;28;20421;-58
2022/11/04 05:07:08;;;;;;;10.63;4.85;;;;;;;;;;4968898;28;20492;-59
2022/11/04 05:09:34;;;;;;;9.27;5.15;;;;;;;;;;4969533;28;20038;-58
2022/11/04 05:11:59;;;;;;;9.07;4.72;;;;;;;;;;4968867;28;20490;-59
2022/11/04 05:14:24;;;;;;;9.70;4.85;;;;;;;;;;4968918;28;20473;-59
2022/11/04 05:16:50;;;;;;;10.70;4.95;;;;;;;;;;4969070;28;20393;-59
2022/11/04 05:19:15;;;;;;;7.95;4.68;;;;;;;;;;4968430;28;20419;-58
2022/11/04 05:21:40;;;;;;;13.02;5.32;;;;;;;;;;4968996;28;20411;-58
2022/11/04 05:24:06;;;;;;;9.68;5.07;;;;;;;;;;4968787;28;20348;-58
2022/11/04 05:26:31;;;;;;;17.08;6.25;;;;;;;;;;4968789;28;20444;-61
2022/11/04 05:28:57;;;;;;;11.63;4.80;;;;;;;;;;4968836;28;20491;-60
2022/11/04 05:31:22;;;;;;;13.63;5.25;;;;;;;;;;4968535;28;20333;-61
2022/11/04 05:33:47;;;;;;;10.95;5.20;;;;;;;;;;4968519;28;20464;-61
2022/11/04 05:36:14;;;;;;;10.88;5.35;;;;;;;;;;4968308;28;20344;-62
2022/11/04 05:38:40;;;;;;;9.18;4.88;;;;;;;;;;4969312;28;20022;-59
2022/11/04 05:41:06;;;;;;;13.45;5.95;;;;;;;;;;4968770;28;20482;-62
2022/11/04 05:43:32;;;;;;;12.73;5.63;;;;;;;;;;4968741;28;20460;-61
2022/11/04 05:45:59;;;;;;;12.35;6.55;;;;;;;;;;4970176;28;20447;-61
2022/11/04 05:48:24;;;;;;;12.57;5.25;;;;;;;;;;4970310;28;20445;-61
2022/11/04 05:50:49;;;;;;;8.82;5.32;;;;;;;;;;4968511;28;20506;-61
2022/11/04 05:53:15;;;;;;;15.65;6.13;;;;;;;;;;4969851;28;20029;-60
2022/11/04 05:55:40;;;;;;;9.10;5.18;;;;;;;;;;4969110;28;20511;-61
2022/11/04 05:58:05;;;;;;;11.65;5.88;;;;;;;;;;4968578;28;20429;-59
2022/11/04 06:00:30;;;;;;;11.15;5.85;;;;;;;;;;4968610;28;20445;-60
2022/11/04 06:02:56;;;;;;;12.75;6.07;;;;;;;;;;5002698;28;20520;-59
2022/11/04 06:05:22;;;;;;;11.18;5.97;;;;;;;;;;5007656;28;20024;-59
2022/11/04 06:07:47;;;;;;;10.55;4.93;;;;;;;;;;5007989;28;20444;-59
2022/11/04 06:10:13;;;;;;;11.48;5.20;;;;;;;;;;5008055;28;20351;-59
2022/11/04 06:12:38;;;;;;;9.57;5.70;;;;;;;;;;5009437;28;20371;-58
2022/11/04 06:15:04;;;;;;;10.10;5.55;;;;;;;;;;5011495;28;20024;-58
2022/11/04 06:17:30;;;;;;;12.80;5.25;;;;;;;;;;5011435;28;20449;-59
2022/11/04 06:19:55;;;;;;;13.45;5.20;;;;;;;;;;5011350;28;20370;-59
2022/11/04 06:22:20;;;;;;;11.85;5.13;;;;;;;;;;5011218;28;20440;-59
2022/11/04 06:24:46;;;;;;;10.15;5.68;;;;;;;;;;5011455;28;20093;-58
2022/11/04 06:27:11;;;;;;;8.65;5.22;;;;;;;;;;5011457;28;20378;-60
2022/11/04 06:29:40;;;;;;;12.73;5.97;;;;;;;;;;5011785;28;20380;-59
2022/11/04 06:32:11;;;;;;;13.45;5.60;;;;;;;;;;5011344;28;20315;-59
2022/11/04 06:34:36;;;;;;;10.55;6.15;;;;;;;;;;5011495;28;20416;-59
2022/11/04 06:37:02;;;;;;;10.35;5.63;;;;;;;;;;5011358;28;20509;-59
2022/11/04 06:39:27;;;;;;;9.40;5.35;;;;;;;;;;5011098;28;20414;-59
2022/11/04 06:41:53;;;;;;;10.23;5.38;;;;;;;;;;5012930;28;20301;-59
2022/11/04 06:44:18;;;;;;;9.95;5.65;;;;;;;;;;5010973;28;20347;-59
2022/11/04 06:46:43;;;;;;;8.85;4.88;;;;;;;;;;5011176;28;20321;-60
2022/11/04 06:49:12;;;;;;;11.10;5.32;;;;;;;;;;5011311;28;20499;-58
2022/11/04 06:51:37;;;;;;;16.13;5.53;;;;;;;;;;5011285;28;20354;-59
2022/11/04 06:54:03;;;;;;;10.48;5.38;;;;;;;;;;5012257;28;20359;-59
2022/11/04 06:56:28;;;;;;;9.15;5.80;;;;;;;;;;5010680;28;20378;-61
2022/11/04 06:58:54;;;;;;;10.88;5.18;;;;;;;;;;5011090;28;20360;-59
2022/11/04 07:01:21;;;;;;;10.10;4.70;;;;;;;;;;5010687;28;20305;-58
2022/11/04 07:03:51;;;;;;;9.57;5.00;;;;;;;;;;5012278;28;20405;-61
2022/11/04 07:06:17;;;;;;;8.68;4.47;;;;;;;;;;5011296;28;20330;-59
2022/11/04 07:08:42;;;;;;;9.02;5.10;;;;;;;;;;5010800;28;20347;-59
2022/11/04 07:11:08;;;;;;;10.18;4.90;;;;;;;;;;5011606;28;20376;-59
2022/11/04 07:13:33;;;;;;;8.15;4.05;;;;;;;;;;5010273;28;20435;-60
2022/11/04 07:15:59;;;;;;;9.10;4.60;;;;;;;;;;5011883;28;20075;-59
2022/11/04 07:18:25;;;;;;;14.23;5.70;;;;;;;;;;5010442;28;20047;-58
2022/11/04 07:20:50;;;;;;;13.82;5.30;;;;;;;;;;5010940;28;20414;-60
2022/11/04 07:23:16;;;;;;;8.48;4.30;;;;;;;;;;5009741;28;20024;-59
2022/11/04 07:25:41;;;;;;;12.63;4.90;;;;;;;;;;5009596;28;20415;-59
2022/11/04 07:28:07;;;;;;;10.55;4.60;;;;;;;;;;5012086;28;20501;-59
2022/11/04 07:30:32;;;;;;;8.43;5.10;;;;;;;;;;5011963;28;20040;-59
2022/11/04 07:32:58;;;;;;;7.55;4.72;;;;;;;;;;4992081;28;20336;-59
2022/11/04 07:35:23;;;;;;;9.38;4.63;;;;;;;;;;5009975;28;20367;-60
2022/11/04 07:37:49;;;;;;;9.85;5.10;;;;;;;;;;5010091;28;20124;-59
2022/11/04 07:40:14;;;;;;;8.82;4.20;;;;;;;;;;5011751;28;20407;-59
2022/11/04 07:42:39;;;;;;;11.20;5.03;;;;;;;;;;5010067;28;20470;-60
2022/11/04 07:45:05;;;;;;;11.20;5.22;;;;;;;;;;5009963;28;20478;-59
2022/11/04 07:47:31;;;;;;;7.88;4.45;;;;;;;;;;5010115;28;20303;-58
2022/11/04 07:49:57;;;;;;;11.00;4.75;;;;;;;;;;5009822;28;20311;-59
2022/11/04 07:52:23;;;;;;;7.50;4.47;;;;;;;;;;5009802;28;20497;-60
2022/11/04 07:54:48;;;;;;;9.77;4.82;;;;;;;;;;5011156;28;20029;-60
2022/11/04 07:57:14;;;;;;;7.53;4.00;;;;;;;;;;5009921;28;20501;-60
2022/11/04 07:59:39;;;;;;;7.53;4.22;;;;;;;;;;5009822;28;20321;-58
2022/11/04 08:02:04;;;;;;;6.68;4.15;;;;;;;;;;5009481;28;20495;-59
2022/11/04 08:04:30;;;;;;;6.18;3.65;;;;;;;;;;5010205;28;20387;-59
2022/11/04 08:06:55;;;;;;;7.60;4.78;;;;;;;;;;5009894;28;20379;-60
2022/11/04 08:09:22;;;;;;;6.72;4.32;;;;;;;;;;5009176;28;20573;-60
2022/11/04 08:11:47;;;;;;;8.23;4.13;;;;;;;;;;5009752;28;20475;-59
2022/11/04 08:14:13;;;;;;;11.73;4.82;;;;;;;;;;5010251;28;20411;-59
2022/11/04 08:16:38;;;;;;;7.07;4.15;;;;;;;;;;5009476;28;20039;-59
2022/11/04 08:19:03;;;;;;;9.35;4.50;;;;;;;;;;5009540;28;20505;-59
2022/11/04 08:21:30;;;;;;;7.18;4.03;;;;;;;;;;5010157;28;20412;-60
2022/11/04 08:23:56;;;;;;;8.52;3.88;;;;;;;;;;5008930;28;20443;-59
2022/11/04 08:26:22;;;;;;;6.65;3.60;;;;;;;;;;5009303;28;20366;-59
2022/11/04 08:28:48;;;;;;;7.68;4.25;;;;;;;;;;5009571;28;20308;-59
2022/11/04 08:31:23;;;;;;;11.10;4.30;;;;;;;;;;5009394;28;20439;-59
2022/11/04 08:33:48;;;;;;;7.65;3.78;;;;;;;;;;5008901;28;20442;-59
2022/11/04 08:36:17;;;;;;;6.35;3.95;;;;;;;;;;5009048;28;20419;-59
2022/11/04 08:38:43;;;;;;;6.55;3.92;;;;;;;;;;5009118;28;20107;-59
2022/11/04 08:41:09;;;;;;;9.80;4.18;;;;;;;;;;4991097;28;20485;-59
2022/11/04 08:43:35;;;;;;;7.30;3.88;;;;;;;;;;4991101;28;20451;-59
2022/11/04 08:46:02;;;;;;;7.68;4.07;;;;;;;;;;5008898;28;20370;-60
2022/11/04 08:48:28;;;;;;;6.70;3.72;;;;;;;;;;5009048;28;20332;-60
2022/11/04 08:50:57;;;;;;;6.43;3.65;;;;;;;;;;5008967;28;20123;-59
2022/11/04 08:53:23;;;;;;;6.63;4.00;;;;;;;;;;5008879;28;20297;-59
2022/11/04 08:55:48;;;;;;;8.32;3.38;;;;;;;;;;5009047;28;20320;-61
2022/11/04 08:58:14;;;;;;;8.80;3.53;;;;;;;;;;5009497;28;20392;-58
2022/11/04 09:00:39;;;;;;;6.68;3.75;;;;;;;;;;5001723;28;20182;-60
2022/11/04 09:03:04;;;;;;;6.43;3.22;;;;;;;;;;5008134;28;20486;-59
2022/11/04 09:05:32;;;;;;;5.20;3.35;;;;;;;;;;5009370;28;20443;-60
2022/11/04 09:07:59;;;;;;;6.88;3.80;;;;;;;;;;5008289;28;20447;-59
2022/11/04 09:10:25;;;;;;;7.57;3.70;;;;;;;;;;5008806;28;20028;-60
2022/11/04 09:12:50;;;;;;;4.82;3.38;;;;;;;;;;5008694;28;20442;-59
2022/11/04 09:15:16;;;;;;;5.18;3.50;;;;;;;;;;4661631;28;10001005;-60
2022/11/04 09:17:43;;;;;;;6.20;2.97;;;;;;;;;;5008349;28;20420;-59
2022/11/04 09:26:52;;;;;;;6.25;3.38;;;;;;;;;;5009430;28;20454;-60
2022/11/04 09:29:17;;;;;;;5.25;3.42;;;;;;;;;;5008547;28;20420;-59
2022/11/04 09:31:42;;;;;;;7.50;3.22;;;;;;;;;;5008577;28;20099;-61
2022/11/04 09:34:08;;;;;;;5.38;2.70;;;;;;;;;;5008842;28;20474;-59
2022/11/04 09:36:33;;;;;;;6.80;3.33;;;;;;;;;;5009743;28;20424;-59
2022/11/04 09:38:58;;;;;;;6.75;3.58;;;;;;;;;;5008438;28;20428;-59
2022/11/04 09:41:51;;;;;;;4.45;2.47;;;;;;;;;;5008003;28;20419;-60
2022/11/04 09:45:04;;;;;;;4.65;2.55;;;;;;;;;;5009629;28;20451;-59
2022/11/04 09:47:32;;;;;;;8.80;3.28;;;;;;;;;;4991784;28;20333;-59
2022/11/04 09:49:58;;;;;;;8.40;3.15;;;;;;;;;;5012280;28;20296;-59
2022/11/04 09:52:28;;;;;;;6.57;3.33;;;;;;;;;;4994680;28;20055;-60
2022/11/04 09:55:19;;;;;;;5.28;3.15;;;;;;;;;;5011943;28;20467;-59
2022/11/04 09:57:54;;;;;;;6.10;3.20;;;;;;;;;;4994425;28;20411;-60
2022/11/04 10:00:20;;;;;;;7.22;3.45;;;;;;;;;;4993949;28;20315;-59
2022/11/04 10:02:49;;;;;;;6.13;3.05;;;;;;;;;;4980616;28;20408;-59
2022/11/04 10:05:17;;;;;;;5.60;3.23;;;;;;;;;;4972256;28;20365;-62
2022/11/04 10:07:54;;;;;;;5.63;3.10;;;;;;;;;;4973252;28;20057;-59
2022/11/04 10:10:22;;;;;;;7.38;3.33;;;;;;;;;;4972660;28;20349;-59
2022/11/04 10:12:50;;;;;;;5.70;3.22;;;;;;;;;;4972027;28;20171;-59
2022/11/04 10:15:46;;;;;;;5.43;2.40;;;;;;;;;;4972319;28;20112;-60
2022/11/04 10:18:32;;;;;;;5.82;2.95;;;;;;;;;;4972345;28;20029;-60
2022/11/04 10:21:39;;;;;;;4.88;2.78;;;;;;;;;;4954540;28;20025;-59
2022/11/04 10:24:23;;;;;;;6.18;3.15;;;;;;;;;;4972160;28;20041;-60
2022/11/04 10:27:17;;;;;;;4.75;3.00;;;;;;;;;;4971711;28;20402;-60
2022/11/04 10:29:46;;;;;;;5.25;2.75;;;;;;;;;;4967285;28;20437;-59
2022/11/04 10:32:17;;;;;;;5.95;3.50;;;;;;;;;;4973040;28;20052;-59
2022/11/04 10:34:46;;;;;;;7.63;3.88;;;;;;;;;;4970377;28;20096;-59
2022/11/04 10:37:12;;;;;;;5.57;3.03;;;;;;;;;;4972307;28;20353;-59
2022/11/04 10:39:42;;;;;;;4.10;2.80;;;;;;;;;;4971832;28;20048;-61
2022/11/04 10:42:16;;;;;;;6.97;3.17;;;;;;;;;;4972062;28;20333;-60
2022/11/04 10:44:42;;;;;;;6.20;3.05;;;;;;;;;;4971854;28;20060;-60
2022/11/04 10:47:17;;;;;;;6.90;3.72;;;;;;;;;;4953858;28;20025;-59
2022/11/04 10:49:52;;;;;;;5.53;2.92;;;;;;;;;;4970813;28;20364;-59
2022/11/04 10:52:17;;;;;;;8.15;3.28;;;;;;;;;;4972143;28;20450;-59
2022/11/04 10:54:46;;;;;;;6.57;3.30;;;;;;;;;;4972057;28;20033;-60
2022/11/04 10:57:16;;;;;;;4.07;3.03;;;;;;;;;;4972002;28;20314;-59
2022/11/04 10:59:49;;;;;;;4.78;3.38;;;;;;;;;;4970601;28;20432;-59
2022/11/04 11:02:15;;;;;;;4.68;2.90;;;;;;;;;;4969976;28;20409;-59
2022/11/04 11:04:43;;;;;;;4.95;2.80;;;;;;;;;;4971171;28;20069;-59
2022/11/04 11:07:10;;;;;;;6.50;3.20;;;;;;;;;;4971608;28;20420;-60
2022/11/04 11:09:47;;;;;;;10.43;3.08;;;;;;;;;;4971311;28;20382;-59
2022/11/04 11:12:12;;;;;;;4.40;2.90;;;;;;;;;;4969869;28;20034;-60
2022/11/04 11:14:39;;;;;;;6.82;3.20;;;;;;;;;;4971768;28;20052;-59
2022/11/04 11:17:24;;;;;;;5.65;3.05;;;;;;;;;;4970944;28;20057;-59
2022/11/04 11:19:57;;;;;;;4.85;2.83;;;;;;;;;;4969801;28;20472;-59
2022/11/04 11:22:40;;;;;;;8.05;3.17;;;;;;;;;;4971013;28;20413;-59
2022/11/04 11:25:28;;;;;;;4.85;3.15;;;;;;;;;;4970833;28;20444;-59
2022/11/04 11:27:55;;;;;;;6.13;3.15;;;;;;;;;;4969666;28;20328;-59
2022/11/04 11:30:24;;;;;;;6.90;3.08;;;;;;;;;;4970791;28;20441;-60
2022/11/04 11:32:55;;;;;;;5.88;2.85;;;;;;;;;;4971146;28;20444;-60
2022/11/04 11:35:24;;;;;;;5.53;3.00;;;;;;;;;;4969381;28;20524;-59
2022/11/04 11:37:49;;;;;;;5.93;2.88;;;;;;;;;;4969669;28;20322;-59
2022/11/04 11:40:26;;;;;;;5.95;2.85;;;;;;;;;;4971193;28;20119;-59
2022/11/04 11:42:52;;;;;;;4.97;3.10;;;;;;;;;;4952527;28;20428;-60
2022/11/04 11:45:19;;;;;;;7.40;3.72;;;;;;;;;;4970647;28;20026;-59
2022/11/04 11:47:46;;;;;;;7.32;3.08;;;;;;;;;;4969182;28;20421;-59
2022/11/04 11:50:17;;;;;;;6.28;3.50;;;;;;;;;;4970251;28;20397;-58
2022/11/04 11:52:47;;;;;;;6.32;3.58;;;;;;;;;;4971513;28;20544;-59
2022/11/04 11:55:33;;;;;;;6.32;3.17;;;;;;;;;;4971123;28;20128;-61
2022/11/04 11:58:12;;;;;;;6.25;3.03;;;;;;;;;;4968841;28;20317;-60
2022/11/04 12:00:50;;;;;;;8.90;3.45;;;;;;;;;;4969253;28;20025;-60
2022/11/04 12:03:48;;;;;;;5.70;3.30;;;;;;;;;;4970758;28;20460;-60
2022/11/04 12:06:55;;;;;;;8.80;3.20;;;;;;;;;;4969557;28;20053;-59
2022/11/04 12:09:31;;;;;;;7.85;3.58;;;;;;;;;;4941502;28;20460;-58
2022/11/04 12:12:15;;;;;;;5.82;3.58;;;;;;;;;;4970972;28;20335;-59
2022/11/04 12:15:05;;;;;;;6.55;3.58;;;;;;;;;;4971116;28;20364;-59
2022/11/04 12:17:58;;;;;;;5.78;2.95;;;;;;;;;;4970075;28;20348;-59
2022/11/04 12:20:35;;;;;;;7.43;3.50;;;;;;;;;;4969834;28;20399;-59
2022/11/04 12:23:16;;;;;;;3.72;2.60;;;;;;;;;;4970152;28;20305;-59
2022/11/04 12:25:59;;;;;;;6.97;3.45;;;;;;;;;;4968492;28;20396;-59
2022/11/04 12:28:37;;;;;;;7.00;3.33;;;;;;;;;;4969745;28;20514;-61
2022/11/04 12:31:36;;;;;;;4.55;3.25;;;;;;;;;;4969960;28;20333;-60
2022/11/04 12:34:25;;;;;;;6.38;3.70;;;;;;;;;;4969153;28;20112;-60
2022/11/04 12:37:03;;;;;;;7.53;3.55;;;;;;;;;;4970318;28;20436;-59
2022/11/04 12:40:10;;;;;;;6.43;3.72;;;;;;;;;;4970993;28;20428;-60
2022/11/04 12:42:50;;;;;;;5.60;3.75;;;;;;;;;;4889844;29;20496;-59
2022/11/04 12:45:18;;;;;;;5.97;3.20;;;;;;;;;;4961482;28;20556;-60
2022/11/04 12:47:44;;;;;;;6.85;3.50;;;;;;;;;;4951490;28;20365;-59
2022/11/04 12:50:44;;;;;;;5.50;3.10;;;;;;;;;;4969586;28;20528;-60
2022/11/04 12:53:18;;;;;;;6.45;3.55;;;;;;;;;;4968191;28;20448;-60
2022/11/04 12:55:54;;;;;;;5.35;3.08;;;;;;;;;;4969214;28;20104;-59
2022/11/04 12:58:37;;;;;;;8.18;3.38;;;;;;;;;;4968898;28;20405;-60
2022/11/04 13:01:07;;;;;;;7.05;3.47;;;;;;;;;;4971799;28;20432;-59
2022/11/04 13:03:47;;;;;;;6.90;3.40;;;;;;;;;;5010325;28;20438;-59
2022/11/04 13:06:20;;;;;;;9.20;3.88;;;;;;;;;;4991149;28;20424;-59
2022/11/04 13:08:51;;;;;;;6.63;3.42;;;;;;;;;;5008636;28;20340;-60
2022/11/04 13:11:22;;;;;;;6.32;3.45;;;;;;;;;;4990793;28;20412;-59
2022/11/04 13:14:15;;;;;;;7.10;3.40;;;;;;;;;;4990946;28;20391;-60
2022/11/04 13:16:43;;;;;;;14.25;3.33;;;;;;;;;;5009085;28;20424;-60
2022/11/04 13:19:31;;;;;;;8.07;3.55;;;;;;;;;;5008685;28;20441;-60
2022/11/04 13:22:00;;;;;;;8.27;3.40;;;;;;;;;;5008311;28;20430;-60
2022/11/04 13:24:30;;;;;;;5.93;3.15;;;;;;;;;;5008499;28;20033;-61
2022/11/04 13:27:00;;;;;;;9.68;3.63;;;;;;;;;;4990984;28;20347;-59
2022/11/04 13:29:26;;;;;;;9.05;3.92;;;;;;;;;;4990771;28;20025;-58
2022/11/04 13:32:24;;;;;;;6.93;3.70;;;;;;;;;;4990808;28;20520;-59
2022/11/04 13:34:59;;;;;;;6.30;3.80;;;;;;;;;;5001010;28;20522;-59
2022/11/04 13:37:42;;;;;;;9.23;3.00;;;;;;;;;;4990382;28;20024;-59
2022/11/04 13:40:18;;;;;;;9.73;3.28;;;;;;;;;;5008286;28;20052;-59
2022/11/04 13:45:54;;;;;;;7.18;2.95;;;;;;;;;;4994522;28;20343;-59
2022/11/04 13:48:23;;;;;;;7.25;4.05;;;;;;;;;;5008351;28;20025;-59
2022/11/04 13:51:16;;;;;;;5.45;3.45;;;;;;;;;;5009393;28;20036;-60
2022/11/04 13:53:56;;;;;;;5.50;3.33;;;;;;;;;;5005113;28;20359;-59
2022/11/04 13:56:38;;;;;;;11.07;5.25;;;;;;;;;;4990244;28;20033;-59
2022/11/04 13:59:31;;;;;;;5.35;3.58;;;;;;;;;;5007930;28;20439;-59
2022/11/04 14:02:18;;;;;;;10.90;4.15;;;;;;;;;;4974596;28;20127;-61
2022/11/04 14:04:45;;;;;;;8.85;4.55;;;;;;;;;;4968682;28;20037;-61
2022/11/04 14:07:14;;;;;;;8.85;4.00;;;;;;;;;;4968829;28;20481;-61
2022/11/04 14:09:43;;;;;;;7.75;4.00;;;;;;;;;;4968330;28;20472;-61
2022/11/04 14:12:17;;;;;;;7.43;3.90;;;;;;;;;;4969738;28;20081;-61
2022/11/04 14:14:46;;;;;;;7.75;4.30;;;;;;;;;;4968245;28;20065;-60
2022/11/04 14:17:33;;;;;;;7.78;4.30;;;;;;;;;;4966920;28;20515;-62
2022/11/04 14:20:00;;;;;;;9.43;4.75;;;;;;;;;;4968598;28;20423;-59
2022/11/04 14:22:33;;;;;;;15.00;4.28;;;;;;;;;;4968792;28;20413;-59
2022/11/04 14:25:01;;;;;;;9.20;4.80;;;;;;;;;;4968693;28;20345;-59
2022/11/04 14:27:38;;;;;;;10.35;4.80;;;;;;;;;;4967709;28;20397;-63
2022/11/04 14:30:04;;;;;;;8.48;4.35;;;;;;;;;;4968482;28;20462;-61
2022/11/04 14:32:35;;;;;;;19.63;5.65;;;;;;;;;;4968202;28;20518;-60
2022/11/04 14:35:04;;;;;;;15.02;5.95;;;;;;;;;;4971822;28;20507;-59
2022/11/04 14:37:30;;;;;;;;;;;;;;;;;;4971672;28;20364;-59
2022/11/04 14:39:58;;;;;;;9.60;4.70;;;;;;;;;;4972007;28;20327;-59
2022/11/04 14:42:57;;;;;;;8.30;4.88;;;;;;;;;;4970623;28;20351;-59
2022/11/04 14:45:37;;;;;;;10.60;5.63;;;;;;;;;;4971713;28;20437;-59
2022/11/04 14:48:14;;;;;;;13.13;5.22;;;;;;;;;;4970955;28;20400;-59
2022/11/04 14:50:42;;;;;;;7.25;3.92;;;;;;;;;;4971886;28;20376;-59
2022/11/04 14:53:14;;;;;;;9.57;4.38;;;;;;;;;;4971745;28;20117;-59
2022/11/04 14:55:40;;;;;;;7.57;4.18;;;;;;;;;;4970389;28;20340;-59
2022/11/04 14:58:23;;;;;;;7.88;4.70;;;;;;;;;;4969886;28;20053;-59
2022/11/04 15:00:50;;;;;;;9.25;4.15;;;;;;;;;;4971498;28;20467;-59
2022/11/04 15:03:24;;;;;;;8.45;4.57;;;;;;;;;;4971277;28;20537;-60
2022/11/04 15:05:59;;;;;;;8.95;3.88;;;;;;;;;;4971511;28;20575;-59
2022/11/04 15:08:32;;;;;;;6.25;3.83;;;;;;;;;;4971111;28;20344;-59
2022/11/04 15:11:06;;;;;;;8.18;4.45;;;;;;;;;;4973003;28;20088;-59
2022/11/04 15:13:36;;;;;;;8.57;5.38;;;;;;;;;;4971270;28;20372;-60
2022/11/04 15:16:29;;;;;;;11.98;4.53;;;;;;;;;;4971493;28;20100;-59
2022/11/04 15:18:56;;;;;;;8.25;4.45;;;;;;;;;;4962787;28;20338;-59
2022/11/04 15:21:22;;;;;;;10.80;4.28;;;;;;;;;;4969859;28;20060;-60
2022/11/04 15:23:50;;;;;;;11.43;5.25;;;;;;;;;;4953251;28;20448;-59
2022/11/04 15:26:25;;;;;;;9.68;4.72;;;;;;;;;;4971383;28;20328;-59
2022/11/04 15:28:51;;;;;;;10.48;5.03;;;;;;;;;;4971684;28;20354;-59
2022/11/04 15:31:24;;;;;;;8.98;4.43;;;;;;;;;;4970485;28;20355;-59
2022/11/04 15:33:52;;;;;;;9.27;4.75;;;;;;;;;;4971247;28;20523;-59
2022/11/04 15:36:25;;;;;;;10.23;4.17;;;;;;;;;;4969325;28;20393;-59
2022/11/04 15:39:15;;;;;;;10.15;4.90;;;;;;;;;;4970506;28;20273;-59
2022/11/04 15:44:28;;;;;;;9.63;4.35;;;;;;;;;;4970679;28;20418;-60
2022/11/04 15:46:57;;;;;;;8.52;4.47;;;;;;;;;;4970851;28;20340;-58